Aktualne dane pomiarowe

Uwaga, wersja testowa! Automatyczne pobieranie danych za pomocą narzędzi lub skryptów to umożliwiających jest zabronione.

Dane meteo z obszaru Polski uzyskane na podstawie depesz SYNOP pobieranych co godzinę z NWS. Najedź myszką na symbol przedstawiony w tabeli, aby uzyskać informacje co do jego znaczenia. Prosimy pamiętać, że to testowa wersja strony, która jeszcze nie jest ukończona. Stworzono również jest krótki FAQ dotyczący korzystania z tej podstrony Anomalie temperatury w chwili obecnej odniesione są do okresu referencyjnego 1951-2016. Okres ten będzie później zmieniony na 1981-2010. Kliknij ikonę aby pobrać plik CSV. Kliknij ikonę aby wygenerować mapę synoptyczną dla danego terminu.

Wybierz Datę:    

        

Tomaszów Mazowiecki (12466)

Dane terminowe dla wybranej stacji. Kliknij datę, aby otrzymać dane z tego terminu dla wszystkich stacji.

TemperaturaZachmurzenieWiatrCiśnienieOpadyPogoda
 Data t td wb tx tn tg rh  Nt Nl Cl Cm Ch ws wd g1 g2 wx mslp ppp ch 24h 12h t ww ww w1 w2  
2019-07-07 23:00:00 13.5 6.8 9.6--- 64---4wx---1010.0 988.3----------
2019-07-07 22:00:00 14.0 6.4 9.6--- 60---3wx---1009.8 988.1----------
2019-07-07 21:00:00 15.0 6.1 10.0--- 55---3wx---1009.3 987.7----------
2019-07-07 20:00:00 15.8 5.7 10.2--- 51---4wx---1009.2 987.6----------
2019-07-07 19:00:00 16.5 5.5 10.5--- 48---4wx---1008.7 987.2----------
2019-07-07 18:00:00 17.2 4.5 10.4--- 43---3wx---1008.1 986.7----------
2019-07-07 17:00:00 17.7 4.3 10.6--- 41---5wx---1007.4 986.0----------
2019-07-07 16:00:00 18.9 3.9 11.0--- 37---6wx---1007.0 985.7----------
2019-07-07 15:00:00 19.9 4.4 11.7--- 36---7wx---1006.6 985.4----------
2019-07-07 14:00:00 20.4 5.3 12.2--- 37---6wx---1006.9 985.7----------
2019-07-07 13:00:00 20.0 5.3 12.1--- 38---7wx---1007.2 986.0----------
2019-07-07 12:00:00 18.9 6.1 11.9--- 43---6wx---1007.3 986.0----------
2019-07-07 11:00:00 18.1 7.5 12.1--- 50---5wx---1007.2 985.9----------
2019-07-07 10:00:00 16.0 9.2 11.9--- 64---4wx---1007.2 985.7----------
2019-07-07 09:00:00 14.4 11.2 12.3--- 81---4wx---1007.0 985.4----------
2019-07-07 08:00:00 13.9 12.0 12.6--- 88---3wx---1006.8 985.2----------
2019-07-07 07:00:00 13.8 12.9 13.1--- 94---3wx---1006.8 985.1----------
2019-07-07 06:00:00 14.3 13.0 13.4--- 92---3wx---1006.5 984.9----------
2019-07-07 05:00:00 15.5 13.9 14.4--- 90---3wx---1006.0 984.5----------
2019-07-07 04:00:00 15.1 13.1 13.7--- 88---2wx---1005.5 984.0----------
2019-07-07 03:00:00 14.6 13.5 13.8--- 93---2wx---1005.5 983.9----------
2019-07-07 02:00:00 14.6 14.1 14.2--- 97---2wx---1005.9 984.3----------
2019-07-07 01:00:00 14.7 13.9 14.1--- 95---1wx---1006.2 984.6----------
2019-07-07 00:00:00 15.1 14.1 14.4--- 94---0wx---1006.9 985.3----------
2019-07-06 23:00:00 16.0 13.1 14.0--- 83---0wx---1006.6 985.1----------
2019-07-06 22:00:00 16.6 12.2 13.7--- 75---4wx---1006.0 984.6----------
2019-07-06 21:00:00 16.5 12.5 13.9--- 77---4----1006.1 984.7----------
2019-07-06 20:00:00 17.3 11.6 13.7--- 69---2wx---1005.8 984.4----------
2019-07-06 19:00:00 18.1 11.7 14.1--- 66---2wx---1006.0 984.7----------
2019-07-06 18:00:00 19.0 11.6 14.4--- 62---3wx---1006.4 985.1----------
2019-07-06 17:00:00 20.0 10.4 14.2--- 54---3wx---1006.7 985.5----------
2019-07-06 16:00:00 21.1 10.9 14.9--- 52---4wx---1006.9 985.8----------
2019-07-06 15:00:00 23.5 9.5 15.3--- 41---3wx---1007.2 986.3----------
2019-07-06 14:00:00 23.3 9.3 15.2--- 41---4wx---1007.8 986.8----------
2019-07-06 13:00:00 22.8 9.9 15.2--- 44---4wx---1008.3 987.3----------
2019-07-06 12:00:00 22.7 9.9 15.2--- 44---4wx---1008.3 987.3----------
2019-07-06 11:00:00 21.5 10.1 14.7--- 48---4wx---1009.2 988.1----------
2019-07-06 10:00:00 20.7 10.2 14.4--- 51---4wx---1009.6 988.4----------
2019-07-06 09:00:00 19.6 10.3 14.0--- 55---5wx---1010.2 988.9----------
2019-07-06 08:00:00 18.3 10.4 13.5--- 60---3wx---1010.9 989.5----------
2019-07-06 07:00:00 16.3 10.6 12.7--- 69---2wx---1011.3 989.7----------
2019-07-06 06:00:00 15.6 10.8 12.5--- 73---2wx---1011.5 989.9----------
2019-07-06 05:00:00 14.3 10.3 11.7--- 77---2wx---1011.9 990.2----------
2019-07-06 04:00:00 13.7 9.8 11.2--- 77---2wx---1012.0 990.2----------
2019-07-06 03:00:00 13.1 9.6 10.8--- 79---2wx---1012.2 990.4----------
2019-07-06 02:00:00 12.9 9.4 10.6--- 79---2wx---1012.1 990.3----------
2019-07-06 01:00:00 12.7 9.0 10.3--- 78---3wx---1012.4 990.5----------
2019-07-06 00:00:00 12.7 8.8 10.2--- 77---3wx---1012.7 990.8----------
4.4 ms

 

Print Friendly, PDF & Email